sensor_id;sensor_type;location;lat;lon;timestamp;P1;durP1;ratioP1;P2;durP2;ratioP2
48524;SDS011;34316;51.514;-0.178;2022-08-19T00:03:30;10.45;;;5.60;;
48524;SDS011;34316;51.514;-0.178;2022-08-19T00:05:32;7.20;;;5.90;;
48524;SDS011;34316;51.514;-0.178;2022-08-19T00:07:34;8.95;;;5.65;;
48524;SDS011;34316;51.514;-0.178;2022-08-19T00:09:36;9.45;;;5.88;;
48524;SDS011;34316;51.514;-0.178;2022-08-19T00:11:39;9.90;;;6.25;;
48524;SDS011;34316;51.514;-0.178;2022-08-19T00:13:41;11.73;;;6.20;;
48524;SDS011;34316;51.514;-0.178;2022-08-19T00:15:43;9.57;;;6.05;;
48524;SDS011;34316;51.514;-0.178;2022-08-19T00:17:46;9.95;;;6.03;;
48524;SDS011;34316;51.514;-0.178;2022-08-19T00:19:48;10.07;;;5.78;;
48524;SDS011;34316;51.514;-0.178;2022-08-19T00:21:50;8.07;;;5.95;;
48524;SDS011;34316;51.514;-0.178;2022-08-19T00:23:54;10.30;;;6.40;;
48524;SDS011;34316;51.514;-0.178;2022-08-19T00:25:58;9.98;;;5.78;;
48524;SDS011;34316;51.514;-0.178;2022-08-19T00:28:00;8.68;;;5.80;;
48524;SDS011;34316;51.514;-0.178;2022-08-19T00:30:03;9.30;;;6.05;;
48524;SDS011;34316;51.514;-0.178;2022-08-19T00:32:06;9.35;;;6.05;;
48524;SDS011;34316;51.514;-0.178;2022-08-19T00:34:11;7.78;;;6.40;;
48524;SDS011;34316;51.514;-0.178;2022-08-19T00:36:13;11.00;;;6.00;;
48524;SDS011;34316;51.514;-0.178;2022-08-19T00:38:16;8.73;;;5.13;;
48524;SDS011;34316;51.514;-0.178;2022-08-19T00:40:35;8.20;;;5.50;;
48524;SDS011;34316;51.514;-0.178;2022-08-19T00:42:37;10.82;;;5.20;;
48524;SDS011;34316;51.514;-0.178;2022-08-19T00:44:39;5.63;;;4.75;;
48524;SDS011;34316;51.514;-0.178;2022-08-19T00:46:42;7.15;;;4.50;;
48524;SDS011;34316;51.514;-0.178;2022-08-19T00:50:59;5.85;;;5.07;;
48524;SDS011;34316;51.514;-0.178;2022-08-19T00:53:01;7.25;;;4.82;;
48524;SDS011;34316;51.514;-0.178;2022-08-19T00:55:05;5.28;;;4.30;;
48524;SDS011;34316;51.514;-0.178;2022-08-19T00:57:12;7.40;;;4.75;;
48524;SDS011;34316;51.514;-0.178;2022-08-19T00:59:18;6.88;;;4.72;;
48524;SDS011;34316;51.514;-0.178;2022-08-19T01:01:41;8.95;;;4.65;;
48524;SDS011;34316;51.514;-0.178;2022-08-19T01:05:58;8.50;;;5.00;;
48524;SDS011;34316;51.514;-0.178;2022-08-19T01:08:02;8.18;;;5.43;;
48524;SDS011;34316;51.514;-0.178;2022-08-19T01:10:06;11.43;;;5.43;;
48524;SDS011;34316;51.514;-0.178;2022-08-19T01:12:14;9.93;;;5.57;;
48524;SDS011;34316;51.514;-0.178;2022-08-19T01:14:16;6.82;;;5.00;;
48524;SDS011;34316;51.514;-0.178;2022-08-19T01:16:19;7.47;;;4.85;;
48524;SDS011;34316;51.514;-0.178;2022-08-19T01:18:23;6.30;;;5.07;;
48524;SDS011;34316;51.514;-0.178;2022-08-19T01:20:25;6.95;;;4.80;;
48524;SDS011;34316;51.514;-0.178;2022-08-19T01:22:29;7.57;;;5.18;;
48524;SDS011;34316;51.514;-0.178;2022-08-19T01:24:34;5.35;;;4.85;;
48524;SDS011;34316;51.514;-0.178;2022-08-19T01:26:46;9.95;;;5.38;;
48524;SDS011;34316;51.514;-0.178;2022-08-19T01:28:51;7.57;;;5.30;;
48524;SDS011;34316;51.514;-0.178;2022-08-19T01:31:00;6.78;;;4.95;;
48524;SDS011;34316;51.514;-0.178;2022-08-19T01:33:08;8.27;;;5.50;;
48524;SDS011;34316;51.514;-0.178;2022-08-19T01:35:10;8.20;;;6.00;;
48524;SDS011;34316;51.514;-0.178;2022-08-19T01:37:14;10.27;;;5.70;;
48524;SDS011;34316;51.514;-0.178;2022-08-19T01:39:27;6.70;;;5.75;;
48524;SDS011;34316;51.514;-0.178;2022-08-19T01:41:29;13.55;;;6.15;;
48524;SDS011;34316;51.514;-0.178;2022-08-19T01:43:32;9.57;;;6.10;;
48524;SDS011;34316;51.514;-0.178;2022-08-19T01:45:34;7.57;;;5.85;;
48524;SDS011;34316;51.514;-0.178;2022-08-19T01:47:37;8.05;;;5.60;;
48524;SDS011;34316;51.514;-0.178;2022-08-19T01:49:39;7.30;;;5.82;;
48524;SDS011;34316;51.514;-0.178;2022-08-19T01:51:42;8.15;;;5.70;;
48524;SDS011;34316;51.514;-0.178;2022-08-19T01:53:46;8.15;;;6.07;;
48524;SDS011;34316;51.514;-0.178;2022-08-19T01:55:49;7.82;;;5.63;;
48524;SDS011;34316;51.514;-0.178;2022-08-19T01:57:52;14.25;;;6.20;;
48524;SDS011;34316;51.514;-0.178;2022-08-19T01:59:56;6.57;;;5.70;;
48524;SDS011;34316;51.514;-0.178;2022-08-19T02:01:58;8.40;;;5.75;;
48524;SDS011;34316;51.514;-0.178;2022-08-19T02:04:00;8.30;;;5.55;;
48524;SDS011;34316;51.514;-0.178;2022-08-19T02:06:02;10.43;;;5.70;;
48524;SDS011;34316;51.514;-0.178;2022-08-19T02:08:06;9.73;;;6.65;;
48524;SDS011;34316;51.514;-0.178;2022-08-19T02:10:10;7.13;;;5.60;;
48524;SDS011;34316;51.514;-0.178;2022-08-19T02:12:16;9.10;;;6.22;;
48524;SDS011;34316;51.514;-0.178;2022-08-19T02:14:18;8.70;;;6.25;;
48524;SDS011;34316;51.514;-0.178;2022-08-19T02:16:20;7.93;;;6.03;;
48524;SDS011;34316;51.514;-0.178;2022-08-19T02:18:22;12.10;;;7.07;;
48524;SDS011;34316;51.514;-0.178;2022-08-19T02:20:28;14.07;;;6.85;;
48524;SDS011;34316;51.514;-0.178;2022-08-19T02:22:30;8.35;;;6.32;;
48524;SDS011;34316;51.514;-0.178;2022-08-19T02:24:32;11.45;;;6.68;;
48524;SDS011;34316;51.514;-0.178;2022-08-19T02:26:34;8.95;;;6.43;;
48524;SDS011;34316;51.514;-0.178;2022-08-19T02:28:36;9.43;;;6.40;;
48524;SDS011;34316;51.514;-0.178;2022-08-19T02:30:38;8.60;;;7.05;;
48524;SDS011;34316;51.514;-0.178;2022-08-19T02:32:40;10.98;;;6.93;;
48524;SDS011;34316;51.514;-0.178;2022-08-19T02:34:54;9.35;;;6.68;;
48524;SDS011;34316;51.514;-0.178;2022-08-19T02:36:56;15.88;;;6.47;;
48524;SDS011;34316;51.514;-0.178;2022-08-19T02:39:03;10.10;;;6.60;;
48524;SDS011;34316;51.514;-0.178;2022-08-19T02:41:07;12.98;;;6.55;;
48524;SDS011;34316;51.514;-0.178;2022-08-19T02:43:13;8.85;;;6.07;;
48524;SDS011;34316;51.514;-0.178;2022-08-19T02:45:15;12.90;;;6.75;;
48524;SDS011;34316;51.514;-0.178;2022-08-19T02:47:18;12.77;;;6.75;;
48524;SDS011;34316;51.514;-0.178;2022-08-19T02:49:20;9.90;;;6.77;;
48524;SDS011;34316;51.514;-0.178;2022-08-19T02:51:27;12.90;;;6.60;;
48524;SDS011;34316;51.514;-0.178;2022-08-19T02:53:30;11.77;;;6.00;;
48524;SDS011;34316;51.514;-0.178;2022-08-19T02:55:32;8.02;;;5.88;;
48524;SDS011;34316;51.514;-0.178;2022-08-19T02:57:46;10.70;;;5.47;;
48524;SDS011;34316;51.514;-0.178;2022-08-19T02:59:49;14.60;;;5.65;;
48524;SDS011;34316;51.514;-0.178;2022-08-19T03:01:51;7.80;;;5.75;;
48524;SDS011;34316;51.514;-0.178;2022-08-19T03:03:53;7.35;;;5.80;;
48524;SDS011;34316;51.514;-0.178;2022-08-19T03:06:03;6.88;;;6.18;;
48524;SDS011;34316;51.514;-0.178;2022-08-19T03:08:10;7.72;;;6.30;;
48524;SDS011;34316;51.514;-0.178;2022-08-19T03:10:13;10.32;;;5.97;;
48524;SDS011;34316;51.514;-0.178;2022-08-19T03:12:15;7.35;;;6.35;;
48524;SDS011;34316;51.514;-0.178;2022-08-19T03:14:17;9.45;;;6.70;;
48524;SDS011;34316;51.514;-0.178;2022-08-19T03:16:20;9.02;;;6.25;;
48524;SDS011;34316;51.514;-0.178;2022-08-19T03:18:23;10.63;;;7.00;;
48524;SDS011;34316;51.514;-0.178;2022-08-19T03:20:28;9.35;;;6.47;;
48524;SDS011;34316;51.514;-0.178;2022-08-19T03:22:30;12.10;;;5.90;;
48524;SDS011;34316;51.514;-0.178;2022-08-19T03:24:32;9.70;;;6.70;;
48524;SDS011;34316;51.514;-0.178;2022-08-19T03:26:37;8.50;;;6.75;;
48524;SDS011;34316;51.514;-0.178;2022-08-19T03:28:41;12.60;;;7.13;;
48524;SDS011;34316;51.514;-0.178;2022-08-19T03:31:00;9.90;;;6.35;;
48524;SDS011;34316;51.514;-0.178;2022-08-19T03:33:25;11.43;;;6.65;;
48524;SDS011;34316;51.514;-0.178;2022-08-19T03:35:28;12.10;;;6.97;;
48524;SDS011;34316;51.514;-0.178;2022-08-19T03:37:30;8.02;;;6.35;;
48524;SDS011;34316;51.514;-0.178;2022-08-19T03:39:33;11.07;;;6.95;;
48524;SDS011;34316;51.514;-0.178;2022-08-19T03:41:37;13.60;;;6.85;;
48524;SDS011;34316;51.514;-0.178;2022-08-19T03:43:46;10.65;;;6.90;;
48524;SDS011;34316;51.514;-0.178;2022-08-19T03:45:48;19.52;;;6.78;;
48524;SDS011;34316;51.514;-0.178;2022-08-19T03:47:50;11.68;;;7.45;;
48524;SDS011;34316;51.514;-0.178;2022-08-19T03:49:52;11.38;;;7.50;;
48524;SDS011;34316;51.514;-0.178;2022-08-19T03:51:55;16.40;;;7.47;;
48524;SDS011;34316;51.514;-0.178;2022-08-19T03:56:00;17.25;;;8.05;;
48524;SDS011;34316;51.514;-0.178;2022-08-19T03:58:03;13.80;;;7.43;;
48524;SDS011;34316;51.514;-0.178;2022-08-19T04:00:05;12.68;;;7.82;;
48524;SDS011;34316;51.514;-0.178;2022-08-19T04:02:14;11.55;;;7.70;;
48524;SDS011;34316;51.514;-0.178;2022-08-19T04:04:16;12.45;;;7.70;;
48524;SDS011;34316;51.514;-0.178;2022-08-19T04:06:21;10.73;;;7.82;;
48524;SDS011;34316;51.514;-0.178;2022-08-19T04:08:33;13.93;;;6.85;;
48524;SDS011;34316;51.514;-0.178;2022-08-19T04:10:35;10.30;;;7.20;;
48524;SDS011;34316;51.514;-0.178;2022-08-19T04:12:38;10.93;;;7.15;;
48524;SDS011;34316;51.514;-0.178;2022-08-19T04:14:43;9.07;;;7.22;;
48524;SDS011;34316;51.514;-0.178;2022-08-19T04:16:46;17.15;;;8.30;;
48524;SDS011;34316;51.514;-0.178;2022-08-19T04:18:48;16.35;;;8.27;;
48524;SDS011;34316;51.514;-0.178;2022-08-19T04:20:51;16.80;;;7.70;;
48524;SDS011;34316;51.514;-0.178;2022-08-19T04:22:53;11.85;;;7.82;;
48524;SDS011;34316;51.514;-0.178;2022-08-19T04:24:55;15.52;;;7.35;;
48524;SDS011;34316;51.514;-0.178;2022-08-19T04:26:58;13.52;;;7.25;;
48524;SDS011;34316;51.514;-0.178;2022-08-19T04:29:03;11.57;;;7.45;;
48524;SDS011;34316;51.514;-0.178;2022-08-19T04:31:14;12.48;;;7.55;;
48524;SDS011;34316;51.514;-0.178;2022-08-19T04:33:18;13.32;;;7.47;;
48524;SDS011;34316;51.514;-0.178;2022-08-19T04:35:33;13.38;;;7.85;;
48524;SDS011;34316;51.514;-0.178;2022-08-19T04:37:36;12.45;;;7.68;;
48524;SDS011;34316;51.514;-0.178;2022-08-19T04:39:39;15.40;;;8.02;;
48524;SDS011;34316;51.514;-0.178;2022-08-19T04:42:03;21.10;;;7.93;;
48524;SDS011;34316;51.514;-0.178;2022-08-19T04:44:31;12.75;;;7.63;;
48524;SDS011;34316;51.514;-0.178;2022-08-19T04:46:35;17.48;;;8.00;;
48524;SDS011;34316;51.514;-0.178;2022-08-19T04:48:50;12.00;;;7.70;;
48524;SDS011;34316;51.514;-0.178;2022-08-19T04:50:54;13.88;;;8.43;;
48524;SDS011;34316;51.514;-0.178;2022-08-19T04:53:00;15.13;;;8.43;;
48524;SDS011;34316;51.514;-0.178;2022-08-19T04:55:03;15.45;;;8.40;;
48524;SDS011;34316;51.514;-0.178;2022-08-19T04:57:08;14.25;;;7.88;;
48524;SDS011;34316;51.514;-0.178;2022-08-19T04:59:11;17.90;;;8.23;;
48524;SDS011;34316;51.514;-0.178;2022-08-19T05:01:15;13.43;;;8.65;;
48524;SDS011;34316;51.514;-0.178;2022-08-19T05:03:19;12.93;;;8.00;;
48524;SDS011;34316;51.514;-0.178;2022-08-19T05:05:21;12.48;;;8.20;;
48524;SDS011;34316;51.514;-0.178;2022-08-19T05:07:23;11.25;;;8.18;;
48524;SDS011;34316;51.514;-0.178;2022-08-19T05:09:26;18.77;;;8.60;;
48524;SDS011;34316;51.514;-0.178;2022-08-19T05:11:49;13.23;;;8.77;;
48524;SDS011;34316;51.514;-0.178;2022-08-19T05:13:54;10.73;;;8.02;;
48524;SDS011;34316;51.514;-0.178;2022-08-19T05:15:56;12.40;;;8.93;;
48524;SDS011;34316;51.514;-0.178;2022-08-19T05:17:59;12.95;;;8.75;;
48524;SDS011;34316;51.514;-0.178;2022-08-19T05:20:21;12.18;;;8.13;;
48524;SDS011;34316;51.514;-0.178;2022-08-19T05:22:44;9.93;;;8.00;;
48524;SDS011;34316;51.514;-0.178;2022-08-19T05:24:47;13.65;;;7.85;;
48524;SDS011;34316;51.514;-0.178;2022-08-19T05:27:09;14.55;;;9.55;;
48524;SDS011;34316;51.514;-0.178;2022-08-19T05:29:11;16.08;;;8.52;;
48524;SDS011;34316;51.514;-0.178;2022-08-19T05:31:13;10.40;;;8.07;;
48524;SDS011;34316;51.514;-0.178;2022-08-19T05:33:15;14.57;;;9.32;;
48524;SDS011;34316;51.514;-0.178;2022-08-19T05:35:17;18.15;;;8.98;;
48524;SDS011;34316;51.514;-0.178;2022-08-19T05:37:20;17.63;;;9.30;;
48524;SDS011;34316;51.514;-0.178;2022-08-19T05:39:27;15.68;;;9.77;;
48524;SDS011;34316;51.514;-0.178;2022-08-19T05:41:30;23.75;;;11.10;;
48524;SDS011;34316;51.514;-0.178;2022-08-19T05:43:32;17.92;;;9.30;;
48524;SDS011;34316;51.514;-0.178;2022-08-19T05:45:37;23.40;;;9.73;;
48524;SDS011;34316;51.514;-0.178;2022-08-19T05:47:40;23.38;;;9.20;;
48524;SDS011;34316;51.514;-0.178;2022-08-19T05:49:42;16.98;;;10.13;;
48524;SDS011;34316;51.514;-0.178;2022-08-19T05:51:44;16.70;;;9.35;;
48524;SDS011;34316;51.514;-0.178;2022-08-19T05:53:46;15.77;;;9.98;;
48524;SDS011;34316;51.514;-0.178;2022-08-19T05:55:48;16.33;;;9.80;;
48524;SDS011;34316;51.514;-0.178;2022-08-19T05:57:50;15.27;;;10.63;;
48524;SDS011;34316;51.514;-0.178;2022-08-19T05:59:52;15.05;;;9.90;;
48524;SDS011;34316;51.514;-0.178;2022-08-19T06:01:59;30.25;;;11.00;;
48524;SDS011;34316;51.514;-0.178;2022-08-19T06:04:02;28.63;;;10.77;;
48524;SDS011;34316;51.514;-0.178;2022-08-19T06:06:04;17.27;;;10.60;;
48524;SDS011;34316;51.514;-0.178;2022-08-19T06:08:08;17.73;;;10.35;;
48524;SDS011;34316;51.514;-0.178;2022-08-19T06:10:10;12.00;;;9.52;;
48524;SDS011;34316;51.514;-0.178;2022-08-19T06:12:14;11.82;;;9.18;;
48524;SDS011;34316;51.514;-0.178;2022-08-19T06:14:20;14.32;;;8.75;;
48524;SDS011;34316;51.514;-0.178;2022-08-19T06:16:28;13.68;;;9.13;;
48524;SDS011;34316;51.514;-0.178;2022-08-19T06:18:33;13.30;;;9.35;;
48524;SDS011;34316;51.514;-0.178;2022-08-19T06:20:35;10.73;;;8.85;;
48524;SDS011;34316;51.514;-0.178;2022-08-19T06:22:56;12.77;;;9.38;;
48524;SDS011;34316;51.514;-0.178;2022-08-19T06:24:58;11.25;;;8.10;;
48524;SDS011;34316;51.514;-0.178;2022-08-19T06:27:00;18.58;;;8.85;;
48524;SDS011;34316;51.514;-0.178;2022-08-19T06:29:03;14.65;;;9.48;;
48524;SDS011;34316;51.514;-0.178;2022-08-19T06:31:07;13.88;;;9.68;;
48524;SDS011;34316;51.514;-0.178;2022-08-19T06:33:10;12.38;;;8.75;;
48524;SDS011;34316;51.514;-0.178;2022-08-19T06:35:11;16.80;;;9.82;;
48524;SDS011;34316;51.514;-0.178;2022-08-19T06:37:15;16.42;;;9.15;;
48524;SDS011;34316;51.514;-0.178;2022-08-19T06:39:22;16.63;;;9.43;;
48524;SDS011;34316;51.514;-0.178;2022-08-19T06:41:25;16.98;;;9.23;;
48524;SDS011;34316;51.514;-0.178;2022-08-19T06:43:28;15.83;;;9.80;;
48524;SDS011;34316;51.514;-0.178;2022-08-19T06:45:29;14.18;;;9.55;;
48524;SDS011;34316;51.514;-0.178;2022-08-19T06:47:35;14.15;;;9.10;;
48524;SDS011;34316;51.514;-0.178;2022-08-19T06:49:38;14.27;;;8.55;;
48524;SDS011;34316;51.514;-0.178;2022-08-19T06:51:41;16.17;;;9.02;;
48524;SDS011;34316;51.514;-0.178;2022-08-19T06:53:46;16.15;;;9.18;;
48524;SDS011;34316;51.514;-0.178;2022-08-19T06:55:49;13.85;;;8.90;;
48524;SDS011;34316;51.514;-0.178;2022-08-19T06:57:56;15.45;;;8.60;;
48524;SDS011;34316;51.514;-0.178;2022-08-19T06:59:58;19.98;;;8.98;;
48524;SDS011;34316;51.514;-0.178;2022-08-19T07:02:03;17.70;;;7.85;;
48524;SDS011;34316;51.514;-0.178;2022-08-19T07:04:07;13.63;;;9.15;;
48524;SDS011;34316;51.514;-0.178;2022-08-19T07:06:13;12.65;;;8.80;;
48524;SDS011;34316;51.514;-0.178;2022-08-19T07:08:38;10.63;;;8.70;;
48524;SDS011;34316;51.514;-0.178;2022-08-19T07:10:44;14.98;;;8.52;;
48524;SDS011;34316;51.514;-0.178;2022-08-19T07:12:47;15.15;;;8.32;;
48524;SDS011;34316;51.514;-0.178;2022-08-19T07:14:52;12.77;;;7.70;;
48524;SDS011;34316;51.514;-0.178;2022-08-19T07:16:55;11.65;;;8.82;;
48524;SDS011;34316;51.514;-0.178;2022-08-19T07:18:58;13.93;;;7.93;;
48524;SDS011;34316;51.514;-0.178;2022-08-19T07:21:14;10.63;;;7.35;;
48524;SDS011;34316;51.514;-0.178;2022-08-19T07:23:18;12.40;;;8.05;;
48524;SDS011;34316;51.514;-0.178;2022-08-19T07:25:23;14.52;;;8.20;;
48524;SDS011;34316;51.514;-0.178;2022-08-19T07:27:33;9.60;;;7.93;;
48524;SDS011;34316;51.514;-0.178;2022-08-19T07:29:35;12.35;;;8.05;;
48524;SDS011;34316;51.514;-0.178;2022-08-19T07:31:38;16.17;;;7.73;;
48524;SDS011;34316;51.514;-0.178;2022-08-19T07:33:40;12.25;;;8.48;;
48524;SDS011;34316;51.514;-0.178;2022-08-19T07:35:44;11.95;;;8.27;;
48524;SDS011;34316;51.514;-0.178;2022-08-19T07:37:46;13.27;;;7.80;;
48524;SDS011;34316;51.514;-0.178;2022-08-19T07:39:48;11.30;;;7.60;;
48524;SDS011;34316;51.514;-0.178;2022-08-19T07:41:50;14.90;;;7.30;;
48524;SDS011;34316;51.514;-0.178;2022-08-19T07:43:52;13.25;;;7.90;;
48524;SDS011;34316;51.514;-0.178;2022-08-19T07:45:54;10.13;;;7.38;;
48524;SDS011;34316;51.514;-0.178;2022-08-19T07:47:59;8.55;;;7.45;;
48524;SDS011;34316;51.514;-0.178;2022-08-19T07:50:03;11.95;;;7.68;;
48524;SDS011;34316;51.514;-0.178;2022-08-19T07:52:08;13.38;;;6.85;;
48524;SDS011;34316;51.514;-0.178;2022-08-19T07:54:10;11.52;;;7.00;;
48524;SDS011;34316;51.514;-0.178;2022-08-19T07:56:13;11.10;;;7.25;;
48524;SDS011;34316;51.514;-0.178;2022-08-19T07:58:24;11.35;;;7.15;;
48524;SDS011;34316;51.514;-0.178;2022-08-19T08:00:26;14.07;;;7.30;;
48524;SDS011;34316;51.514;-0.178;2022-08-19T08:02:28;12.57;;;6.65;;
48524;SDS011;34316;51.514;-0.178;2022-08-19T08:04:30;9.05;;;7.10;;
48524;SDS011;34316;51.514;-0.178;2022-08-19T08:06:52;10.10;;;6.63;;
48524;SDS011;34316;51.514;-0.178;2022-08-19T08:09:13;11.18;;;6.53;;
48524;SDS011;34316;51.514;-0.178;2022-08-19T08:11:21;14.57;;;7.15;;
48524;SDS011;34316;51.514;-0.178;2022-08-19T08:13:24;12.45;;;6.60;;
48524;SDS011;34316;51.514;-0.178;2022-08-19T08:15:26;9.90;;;6.20;;
48524;SDS011;34316;51.514;-0.178;2022-08-19T08:17:29;11.57;;;6.50;;
48524;SDS011;34316;51.514;-0.178;2022-08-19T08:19:52;12.00;;;6.72;;
48524;SDS011;34316;51.514;-0.178;2022-08-19T08:21:58;12.77;;;6.78;;
48524;SDS011;34316;51.514;-0.178;2022-08-19T08:24:01;9.43;;;6.50;;
48524;SDS011;34316;51.514;-0.178;2022-08-19T08:26:02;12.88;;;6.85;;
48524;SDS011;34316;51.514;-0.178;2022-08-19T08:28:06;9.98;;;6.68;;
48524;SDS011;34316;51.514;-0.178;2022-08-19T08:30:21;7.75;;;5.88;;
48524;SDS011;34316;51.514;-0.178;2022-08-19T08:32:24;8.20;;;6.45;;
48524;SDS011;34316;51.514;-0.178;2022-08-19T08:34:26;13.05;;;7.65;;
48524;SDS011;34316;51.514;-0.178;2022-08-19T08:36:28;9.88;;;6.35;;
48524;SDS011;34316;51.514;-0.178;2022-08-19T08:38:35;11.38;;;6.00;;
48524;SDS011;34316;51.514;-0.178;2022-08-19T08:42:45;8.98;;;5.95;;
48524;SDS011;34316;51.514;-0.178;2022-08-19T08:45:12;13.98;;;5.35;;
48524;SDS011;34316;51.514;-0.178;2022-08-19T08:47:17;9.65;;;5.90;;
48524;SDS011;34316;51.514;-0.178;2022-08-19T08:51:45;8.13;;;5.65;;
48524;SDS011;34316;51.514;-0.178;2022-08-19T08:54:00;12.55;;;5.90;;
48524;SDS011;34316;51.514;-0.178;2022-08-19T08:56:03;12.00;;;5.05;;
48524;SDS011;34316;51.514;-0.178;2022-08-19T08:58:21;9.23;;;4.88;;
48524;SDS011;34316;51.514;-0.178;2022-08-19T09:00:30;7.93;;;5.10;;
48524;SDS011;34316;51.514;-0.178;2022-08-19T09:02:36;7.72;;;4.68;;
48524;SDS011;34316;51.514;-0.178;2022-08-19T09:04:38;10.27;;;4.70;;
48524;SDS011;34316;51.514;-0.178;2022-08-19T09:06:49;10.15;;;4.82;;
48524;SDS011;34316;51.514;-0.178;2022-08-19T09:09:04;11.23;;;4.43;;
48524;SDS011;34316;51.514;-0.178;2022-08-19T09:12:00;7.10;;;4.40;;
48524;SDS011;34316;51.514;-0.178;2022-08-19T09:13:56;6.47;;;3.75;;
48524;SDS011;34316;51.514;-0.178;2022-08-19T09:16:17;8.25;;;4.45;;
48524;SDS011;34316;51.514;-0.178;2022-08-19T09:20:48;9.20;;;4.20;;
48524;SDS011;34316;51.514;-0.178;2022-08-19T09:22:50;5.57;;;4.10;;
48524;SDS011;34316;51.514;-0.178;2022-08-19T09:24:52;8.60;;;4.70;;
48524;SDS011;34316;51.514;-0.178;2022-08-19T09:26:54;8.75;;;4.00;;
48524;SDS011;34316;51.514;-0.178;2022-08-19T09:28:57;5.32;;;3.75;;
48524;SDS011;34316;51.514;-0.178;2022-08-19T09:31:00;8.43;;;4.15;;
48524;SDS011;34316;51.514;-0.178;2022-08-19T09:33:02;6.97;;;3.85;;
48524;SDS011;34316;51.514;-0.178;2022-08-19T09:35:04;6.05;;;4.15;;
48524;SDS011;34316;51.514;-0.178;2022-08-19T09:37:10;5.13;;;3.33;;
48524;SDS011;34316;51.514;-0.178;2022-08-19T09:39:15;6.97;;;3.92;;
48524;SDS011;34316;51.514;-0.178;2022-08-19T09:41:18;5.97;;;3.75;;
48524;SDS011;34316;51.514;-0.178;2022-08-19T09:43:22;7.53;;;3.63;;
48524;SDS011;34316;51.514;-0.178;2022-08-19T09:45:33;6.95;;;3.85;;
48524;SDS011;34316;51.514;-0.178;2022-08-19T09:47:36;7.07;;;4.25;;
48524;SDS011;34316;51.514;-0.178;2022-08-19T09:49:41;5.65;;;3.72;;
48524;SDS011;34316;51.514;-0.178;2022-08-19T09:51:42;6.50;;;4.05;;
48524;SDS011;34316;51.514;-0.178;2022-08-19T09:53:51;9.07;;;3.70;;
48524;SDS011;34316;51.514;-0.178;2022-08-19T09:55:55;11.52;;;3.85;;
48524;SDS011;34316;51.514;-0.178;2022-08-19T09:57:58;7.15;;;3.30;;
48524;SDS011;34316;51.514;-0.178;2022-08-19T10:00:04;7.70;;;3.33;;
48524;SDS011;34316;51.514;-0.178;2022-08-19T10:02:08;15.88;;;4.20;;
48524;SDS011;34316;51.514;-0.178;2022-08-19T10:04:11;5.20;;;3.08;;
48524;SDS011;34316;51.514;-0.178;2022-08-19T10:06:21;8.38;;;3.50;;
48524;SDS011;34316;51.514;-0.178;2022-08-19T10:08:44;5.75;;;3.80;;
48524;SDS011;34316;51.514;-0.178;2022-08-19T10:10:51;5.50;;;3.83;;
48524;SDS011;34316;51.514;-0.178;2022-08-19T10:12:53;6.72;;;3.67;;
48524;SDS011;34316;51.514;-0.178;2022-08-19T10:16:58;7.10;;;3.80;;
48524;SDS011;34316;51.514;-0.178;2022-08-19T10:19:19;5.38;;;3.65;;
48524;SDS011;34316;51.514;-0.178;2022-08-19T10:21:27;5.80;;;3.58;;
48524;SDS011;34316;51.514;-0.178;2022-08-19T10:23:32;6.55;;;3.47;;
48524;SDS011;34316;51.514;-0.178;2022-08-19T10:25:35;8.02;;;3.85;;
48524;SDS011;34316;51.514;-0.178;2022-08-19T10:27:38;7.57;;;3.60;;
48524;SDS011;34316;51.514;-0.178;2022-08-19T10:29:40;4.20;;;3.72;;
48524;SDS011;34316;51.514;-0.178;2022-08-19T10:31:46;6.90;;;3.95;;
48524;SDS011;34316;51.514;-0.178;2022-08-19T10:34:03;6.10;;;4.25;;
48524;SDS011;34316;51.514;-0.178;2022-08-19T10:36:07;7.20;;;3.85;;
48524;SDS011;34316;51.514;-0.178;2022-08-19T10:38:19;7.32;;;3.85;;
48524;SDS011;34316;51.514;-0.178;2022-08-19T10:40:31;6.47;;;4.90;;
48524;SDS011;34316;51.514;-0.178;2022-08-19T10:42:34;9.35;;;4.70;;
48524;SDS011;34316;51.514;-0.178;2022-08-19T10:44:36;5.53;;;3.92;;
48524;SDS011;34316;51.514;-0.178;2022-08-19T10:46:39;8.25;;;4.40;;
48524;SDS011;34316;51.514;-0.178;2022-08-19T10:48:49;10.50;;;4.68;;
48524;SDS011;34316;51.514;-0.178;2022-08-19T10:50:51;7.65;;;4.30;;
48524;SDS011;34316;51.514;-0.178;2022-08-19T10:53:22;7.07;;;4.13;;
48524;SDS011;34316;51.514;-0.178;2022-08-19T10:55:27;8.10;;;4.68;;
48524;SDS011;34316;51.514;-0.178;2022-08-19T10:57:47;8.05;;;4.40;;
48524;SDS011;34316;51.514;-0.178;2022-08-19T11:00:05;4.60;;;3.97;;
48524;SDS011;34316;51.514;-0.178;2022-08-19T11:02:14;6.93;;;4.13;;
48524;SDS011;34316;51.514;-0.178;2022-08-19T11:04:16;9.68;;;4.35;;
48524;SDS011;34316;51.514;-0.178;2022-08-19T11:06:19;4.93;;;3.97;;
48524;SDS011;34316;51.514;-0.178;2022-08-19T11:08:22;12.63;;;4.07;;
48524;SDS011;34316;51.514;-0.178;2022-08-19T11:10:24;5.72;;;4.32;;
48524;SDS011;34316;51.514;-0.178;2022-08-19T11:12:26;6.47;;;4.00;;
48524;SDS011;34316;51.514;-0.178;2022-08-19T11:14:29;8.82;;;4.20;;
48524;SDS011;34316;51.514;-0.178;2022-08-19T11:16:34;10.20;;;4.32;;
48524;SDS011;34316;51.514;-0.178;2022-08-19T11:18:39;6.82;;;4.15;;
48524;SDS011;34316;51.514;-0.178;2022-08-19T11:20:45;6.47;;;3.88;;
48524;SDS011;34316;51.514;-0.178;2022-08-19T11:22:47;5.47;;;4.40;;
48524;SDS011;34316;51.514;-0.178;2022-08-19T11:24:49;7.03;;;4.50;;
48524;SDS011;34316;51.514;-0.178;2022-08-19T11:26:52;5.40;;;4.60;;
48524;SDS011;34316;51.514;-0.178;2022-08-19T11:28:59;5.90;;;4.45;;
48524;SDS011;34316;51.514;-0.178;2022-08-19T11:31:02;6.68;;;4.10;;
48524;SDS011;34316;51.514;-0.178;2022-08-19T11:33:07;8.18;;;4.55;;
48524;SDS011;34316;51.514;-0.178;2022-08-19T11:35:09;6.77;;;4.97;;
48524;SDS011;34316;51.514;-0.178;2022-08-19T11:37:12;8.70;;;4.57;;
48524;SDS011;34316;51.514;-0.178;2022-08-19T11:39:15;9.35;;;4.80;;
48524;SDS011;34316;51.514;-0.178;2022-08-19T11:41:18;5.00;;;4.35;;
48524;SDS011;34316;51.514;-0.178;2022-08-19T11:43:22;6.60;;;3.90;;
48524;SDS011;34316;51.514;-0.178;2022-08-19T11:45:25;5.53;;;4.15;;
48524;SDS011;34316;51.514;-0.178;2022-08-19T11:47:28;7.28;;;4.30;;
48524;SDS011;34316;51.514;-0.178;2022-08-19T11:49:31;6.85;;;4.20;;
48524;SDS011;34316;51.514;-0.178;2022-08-19T11:51:34;8.87;;;4.33;;
48524;SDS011;34316;51.514;-0.178;2022-08-19T11:53:36;7.33;;;4.83;;
48524;SDS011;34316;51.514;-0.178;2022-08-19T11:57:44;8.32;;;4.40;;
48524;SDS011;34316;51.514;-0.178;2022-08-19T11:59:50;6.13;;;4.10;;
48524;SDS011;34316;51.514;-0.178;2022-08-19T12:01:54;8.07;;;4.47;;
48524;SDS011;34316;51.514;-0.178;2022-08-19T12:03:57;8.90;;;4.80;;
48524;SDS011;34316;51.514;-0.178;2022-08-19T12:06:03;13.60;;;4.40;;
48524;SDS011;34316;51.514;-0.178;2022-08-19T12:08:06;6.07;;;3.95;;
48524;SDS011;34316;51.514;-0.178;2022-08-19T12:10:09;8.80;;;4.75;;
48524;SDS011;34316;51.514;-0.178;2022-08-19T12:12:11;4.80;;;3.70;;
48524;SDS011;34316;51.514;-0.178;2022-08-19T12:14:13;8.55;;;4.68;;
48524;SDS011;34316;51.514;-0.178;2022-08-19T12:16:20;4.95;;;3.70;;
48524;SDS011;34316;51.514;-0.178;2022-08-19T12:18:30;7.20;;;4.28;;
48524;SDS011;34316;51.514;-0.178;2022-08-19T12:20:34;4.80;;;4.05;;
48524;SDS011;34316;51.514;-0.178;2022-08-19T12:22:37;7.82;;;4.25;;
48524;SDS011;34316;51.514;-0.178;2022-08-19T12:26:42;5.75;;;3.90;;
48524;SDS011;34316;51.514;-0.178;2022-08-19T12:28:54;8.35;;;4.60;;
48524;SDS011;34316;51.514;-0.178;2022-08-19T12:30:56;6.43;;;4.40;;
48524;SDS011;34316;51.514;-0.178;2022-08-19T12:32:58;13.00;;;4.60;;
48524;SDS011;34316;51.514;-0.178;2022-08-19T12:35:00;6.82;;;4.50;;
48524;SDS011;34316;51.514;-0.178;2022-08-19T12:37:03;7.10;;;4.18;;
48524;SDS011;34316;51.514;-0.178;2022-08-19T12:39:06;10.05;;;4.45;;
48524;SDS011;34316;51.514;-0.178;2022-08-19T12:41:12;7.22;;;4.53;;